Lynwood, Idaho
Current Conditions -  °F | °C
As of 3:53 PM on Thursday 23 Oct 2014 (Local Time) from KTWF Reporting Station
Overcast Overcast  
Wind Chill: 63°   Ceiling: 12000
Heat Index: 63°   Visibility: 10mi
Dew Point: 37°   Wind: 6mph
Humidity: 38%   Direction: 330°NNW
Pressure: 30.06"   Gusts: NA
Location:  42.2444°N, 114.662°W
Report Text: KTWF 232153Z AUTO 33005KT 10SM OVC120 17/03 A3006 RMK AO2 SLP152 T01720028
Loading
Personal Weather Stations






























Interactive Weather Map
Tropical Storm Tracking
New forecast layout! Learn more

10-Day Weather Forecast

Advertisements
Track Severe Weather on mobile